createdAt,value
2022-11-27T08:41:07.234Z,-0.22
2022-11-27T08:42:07.153Z,-0.13
2022-11-27T08:43:07.093Z,-0.11
2022-11-27T08:44:09.446Z,-0.01
2022-11-27T08:45:06.983Z,0.04
2022-11-27T08:46:07.014Z,0.08
2022-11-27T08:47:06.866Z,0.04
2022-11-27T08:48:06.786Z,0.07
2022-11-27T08:49:06.715Z,0.07
2022-11-27T08:50:06.646Z,0.12
2022-11-27T08:51:06.585Z,0.09
2022-11-27T08:52:06.506Z,0.14
2022-11-27T08:53:06.424Z,0.20
2022-11-27T08:54:06.345Z,0.15
2022-11-27T08:55:06.266Z,0.17
2022-11-27T08:56:06.212Z,0.12
2022-11-27T08:57:06.124Z,0.12
2022-11-27T08:58:06.035Z,0.11
2022-11-27T08:59:05.967Z,0.17
2022-11-27T09:00:05.887Z,0.15
2022-11-27T09:01:05.870Z,0.17
2022-11-27T09:02:05.741Z,0.18
2022-11-27T09:03:05.654Z,0.20
2022-11-27T09:04:05.600Z,0.15
2022-11-27T09:05:05.479Z,0.17
2022-11-27T09:06:05.387Z,0.15
2022-11-27T09:07:05.314Z,0.17
2022-11-27T09:08:05.221Z,0.22
2022-11-27T09:09:05.149Z,0.25
2022-11-27T09:10:05.041Z,0.29
2022-11-27T09:11:04.959Z,0.33
2022-11-27T09:12:04.869Z,0.44
2022-11-27T09:13:04.789Z,0.41
2022-11-27T09:14:04.679Z,0.35
2022-11-27T09:15:04.571Z,0.37
2022-11-27T09:16:04.517Z,0.41
2022-11-27T09:17:04.484Z,0.48
2022-11-27T09:18:04.309Z,0.48
2022-11-27T09:19:04.198Z,0.47
2022-11-27T09:20:04.094Z,0.47
2022-11-27T09:21:04.000Z,0.55
2022-11-27T09:22:03.905Z,0.50
2022-11-27T09:23:03.841Z,0.55
2022-11-27T09:24:03.701Z,0.66
2022-11-27T09:25:03.630Z,0.63
2022-11-27T09:26:03.523Z,0.60
2022-11-27T09:27:03.442Z,0.59
2022-11-27T09:28:03.350Z,0.60
2022-11-27T09:29:03.272Z,0.62
2022-11-27T09:30:03.164Z,0.63
2022-11-27T09:31:03.081Z,0.66
2022-11-27T09:32:03.042Z,0.67
2022-11-27T09:33:02.883Z,0.74
2022-11-27T09:34:02.804Z,0.78
2022-11-27T09:35:02.721Z,0.74
2022-11-27T09:36:02.589Z,0.74
2022-11-27T09:37:02.509Z,0.74
2022-11-27T09:38:02.405Z,0.80
2022-11-27T09:39:02.310Z,0.72
2022-11-27T09:40:02.227Z,0.67
2022-11-27T09:41:03.418Z,0.69
2022-11-27T09:42:02.023Z,0.73
2022-11-27T09:43:01.922Z,0.72
2022-11-27T09:44:01.837Z,0.80
2022-11-27T09:45:01.751Z,0.74
2022-11-27T09:46:01.725Z,0.81
2022-11-27T09:47:01.561Z,0.85
2022-11-27T09:48:01.454Z,0.88
2022-11-27T09:49:01.353Z,0.88
2022-11-27T09:50:01.275Z,0.94
2022-11-27T09:51:01.163Z,1.02
2022-11-27T09:52:01.077Z,1.06
2022-11-27T09:53:00.973Z,1.12
2022-11-27T09:54:00.887Z,1.20
2022-11-27T09:55:00.777Z,1.24
2022-11-27T09:56:00.706Z,1.28
2022-11-27T09:57:00.600Z,1.41
2022-11-27T09:58:00.506Z,1.41
2022-11-27T09:59:00.410Z,1.41
2022-11-27T10:00:00.314Z,1.41
2022-11-27T10:01:00.228Z,1.46
2022-11-27T10:02:00.360Z,1.52
2022-11-27T10:03:00.161Z,1.46
2022-11-27T10:03:59.928Z,1.56
2022-11-27T10:05:13.408Z,1.60
2022-11-27T10:06:00.749Z,1.69
2022-11-27T10:06:59.645Z,1.64
2022-11-27T10:08:03.412Z,1.66
2022-11-27T10:09:00.439Z,1.49
2022-11-27T10:09:59.358Z,1.45
2022-11-27T10:10:59.269Z,1.41
2022-11-27T10:11:59.159Z,1.41
2022-11-27T10:12:59.050Z,1.42
2022-11-27T10:13:58.967Z,1.44
2022-11-27T10:14:58.871Z,1.46
2022-11-27T10:15:58.799Z,1.52
2022-11-27T10:16:58.722Z,1.49
2022-11-27T10:17:58.580Z,1.48
2022-11-27T10:18:58.488Z,1.57
2022-11-27T10:19:58.398Z,1.59
2022-11-27T10:20:58.290Z,1.63
2022-11-27T10:21:58.218Z,1.67
2022-11-27T10:22:58.094Z,1.67
2022-11-27T10:23:58.004Z,1.74
2022-11-27T10:24:57.901Z,1.67
2022-11-27T10:25:57.814Z,1.71
2022-11-27T10:26:57.715Z,1.69
2022-11-27T10:27:57.620Z,1.75
2022-11-27T10:28:57.524Z,1.85
2022-11-27T10:29:57.424Z,1.81
2022-11-27T10:30:57.315Z,1.82
2022-11-27T10:31:57.371Z,1.85
2022-11-27T10:32:57.349Z,1.80
2022-11-27T10:33:57.014Z,1.73
2022-11-27T10:34:56.923Z,1.74
2022-11-27T10:35:56.832Z,1.80
2022-11-27T10:36:56.715Z,1.75
2022-11-27T10:37:58.064Z,1.80
2022-11-27T10:38:56.535Z,1.81
2022-11-27T10:39:56.444Z,1.78
2022-11-27T10:40:56.345Z,1.82
2022-11-27T10:41:56.251Z,1.87
2022-11-27T10:42:56.154Z,1.93
2022-11-27T10:43:56.045Z,1.97
2022-11-27T10:44:55.944Z,1.95
2022-11-27T10:45:55.934Z,1.92
2022-11-27T10:46:55.738Z,2.01
2022-11-27T10:47:55.646Z,2.07
2022-11-27T10:48:55.552Z,2.04
2022-11-27T10:49:55.447Z,2.06
2022-11-27T10:50:55.346Z,2.17
2022-11-27T10:51:55.246Z,2.17
2022-11-27T10:52:55.155Z,2.14
2022-11-27T10:53:55.066Z,2.14
2022-11-27T10:54:54.947Z,2.15
2022-11-27T10:55:54.860Z,2.06
2022-11-27T10:56:54.776Z,2.11
2022-11-27T10:57:54.649Z,2.03
2022-11-27T10:58:54.548Z,2.03
2022-11-27T10:59:54.456Z,1.97
2022-11-27T11:00:54.352Z,1.92
2022-11-27T11:01:54.295Z,1.95
2022-11-27T11:02:54.106Z,1.97
2022-11-27T11:03:53.998Z,2.00
2022-11-27T11:05:16.110Z,2.03
2022-11-27T11:06:17.881Z,2.07
2022-11-27T11:06:54.660Z,2.07
2022-11-27T11:07:53.589Z,2.06
2022-11-27T11:08:57.165Z,2.06
2022-11-27T11:09:54.350Z,2.07
2022-11-27T11:10:53.218Z,2.10
2022-11-27T11:11:53.124Z,2.10
2022-11-27T11:12:53.009Z,2.19
2022-11-27T11:13:52.911Z,2.15
2022-11-27T11:14:52.792Z,2.04
2022-11-27T11:15:52.681Z,2.14
2022-11-27T11:16:52.572Z,2.15
2022-11-27T11:17:52.465Z,2.14
2022-11-27T11:18:52.341Z,2.15
2022-11-27T11:19:52.274Z,2.15
2022-11-27T11:20:52.160Z,2.18
2022-11-27T11:21:52.054Z,2.21
2022-11-27T11:22:51.912Z,2.21
2022-11-27T11:23:51.813Z,2.19
2022-11-27T11:24:51.715Z,2.17
2022-11-27T11:25:51.623Z,2.19
2022-11-27T11:26:51.512Z,2.14
2022-11-27T11:27:51.415Z,2.17
2022-11-27T11:28:51.302Z,2.18
2022-11-27T11:29:51.210Z,2.18
2022-11-27T11:30:51.115Z,2.28
2022-11-27T11:31:51.068Z,2.22
2022-11-27T11:32:50.884Z,2.24
2022-11-27T11:33:50.777Z,2.29
2022-11-27T11:34:50.677Z,2.25
2022-11-27T11:35:50.566Z,2.28
2022-11-27T11:36:50.443Z,2.24
2022-11-27T11:37:50.359Z,2.22
2022-11-27T11:38:50.216Z,2.25
2022-11-27T11:39:50.119Z,2.29
2022-11-27T11:40:50.005Z,2.29
2022-11-27T11:41:49.887Z,2.32
2022-11-27T11:42:49.759Z,2.40
2022-11-27T11:43:49.659Z,2.35
2022-11-27T11:44:49.547Z,2.24
2022-11-27T11:45:49.482Z,2.22
2022-11-27T11:46:49.348Z,2.21
2022-11-27T11:47:49.215Z,2.30
2022-11-27T11:48:49.106Z,2.32
2022-11-27T11:49:48.998Z,2.35
2022-11-27T11:50:48.870Z,2.29
2022-11-27T11:51:48.777Z,2.39
2022-11-27T11:53:39.010Z,2.40
2022-11-27T11:54:39.214Z,2.43
2022-11-27T11:55:38.894Z,2.42
2022-11-27T11:56:38.822Z,2.40
2022-11-27T11:57:38.789Z,2.39
2022-11-27T11:58:38.703Z,2.35
2022-11-27T11:59:43.721Z,2.35
2022-11-27T12:00:58.435Z,2.33
2022-11-27T12:01:39.555Z,2.39
2022-11-27T12:02:38.550Z,2.35
2022-11-27T12:03:38.441Z,2.43
2022-11-27T12:04:38.491Z,2.51
2022-11-27T12:05:38.334Z,2.43
2022-11-27T12:06:38.275Z,2.45
2022-11-27T12:07:38.309Z,2.45
2022-11-27T12:08:38.174Z,2.42
2022-11-27T12:09:38.104Z,2.39
2022-11-27T12:10:38.047Z,2.43
2022-11-27T12:11:37.996Z,2.43
2022-11-27T12:12:37.916Z,2.50
2022-11-27T12:13:37.886Z,2.53
2022-11-27T12:14:38.230Z,2.48
2022-11-27T12:15:37.768Z,2.51
2022-11-27T12:16:37.760Z,2.45
2022-11-27T12:17:37.644Z,2.51
2022-11-27T12:18:37.578Z,2.50
2022-11-27T12:19:37.521Z,2.53
2022-11-27T12:20:37.466Z,2.37
2022-11-27T12:21:37.398Z,2.53
2022-11-27T12:22:37.325Z,2.51
2022-11-27T12:23:37.279Z,2.50
